sensor_id;sensor_type;location;lat;lon;timestamp;temperature;humidity
6496;DHT22;3281;47.658;9.166;2024-02-28T00:01:26;10.20;99.90
6496;DHT22;3281;47.658;9.166;2024-02-28T00:03:54;10.20;99.90
6496;DHT22;3281;47.658;9.166;2024-02-28T00:06:21;10.20;99.90
6496;DHT22;3281;47.658;9.166;2024-02-28T00:08:48;10.20;99.90
6496;DHT22;3281;47.658;9.166;2024-02-28T00:11:16;10.20;99.90
6496;DHT22;3281;47.658;9.166;2024-02-28T00:13:43;10.20;99.90
6496;DHT22;3281;47.658;9.166;2024-02-28T00:16:09;10.10;99.90
6496;DHT22;3281;47.658;9.166;2024-02-28T00:18:37;10.10;99.90
6496;DHT22;3281;47.658;9.166;2024-02-28T00:21:05;10.10;99.90
6496;DHT22;3281;47.658;9.166;2024-02-28T00:23:32;10.60;99.90
6496;DHT22;3281;47.658;9.166;2024-02-28T00:25:59;10.20;99.90
6496;DHT22;3281;47.658;9.166;2024-02-28T00:28:27;10.10;99.90
6496;DHT22;3281;47.658;9.166;2024-02-28T00:30:53;10.10;99.90
6496;DHT22;3281;47.658;9.166;2024-02-28T00:33:20;10.00;99.90
6496;DHT22;3281;47.658;9.166;2024-02-28T00:35:47;10.10;99.90
6496;DHT22;3281;47.658;9.166;2024-02-28T00:38:15;10.10;99.90
6496;DHT22;3281;47.658;9.166;2024-02-28T00:40:41;10.10;99.90
6496;DHT22;3281;47.658;9.166;2024-02-28T00:43:09;10.10;99.90
6496;DHT22;3281;47.658;9.166;2024-02-28T00:45:35;10.10;99.90
6496;DHT22;3281;47.658;9.166;2024-02-28T00:48:03;10.10;99.90
6496;DHT22;3281;47.658;9.166;2024-02-28T00:50:29;10.10;99.90
6496;DHT22;3281;47.658;9.166;2024-02-28T00:52:56;10.00;99.90
6496;DHT22;3281;47.658;9.166;2024-02-28T00:55:24;10.00;99.90
6496;DHT22;3281;47.658;9.166;2024-02-28T00:57:51;10.10;99.90
6496;DHT22;3281;47.658;9.166;2024-02-28T01:00:18;10.00;99.90
6496;DHT22;3281;47.658;9.166;2024-02-28T01:02:45;10.00;99.90
6496;DHT22;3281;47.658;9.166;2024-02-28T01:05:12;10.00;99.90
6496;DHT22;3281;47.658;9.166;2024-02-28T01:07:39;10.00;99.90
6496;DHT22;3281;47.658;9.166;2024-02-28T01:10:07;10.10;99.90
6496;DHT22;3281;47.658;9.166;2024-02-28T01:12:35;10.00;99.90
6496;DHT22;3281;47.658;9.166;2024-02-28T01:15:02;10.00;99.90
6496;DHT22;3281;47.658;9.166;2024-02-28T01:17:29;10.00;99.90
6496;DHT22;3281;47.658;9.166;2024-02-28T01:19:56;10.00;99.90
6496;DHT22;3281;47.658;9.166;2024-02-28T01:22:23;10.00;99.90
6496;DHT22;3281;47.658;9.166;2024-02-28T01:24:50;10.00;99.90
6496;DHT22;3281;47.658;9.166;2024-02-28T01:27:17;10.00;99.90
6496;DHT22;3281;47.658;9.166;2024-02-28T01:29:45;10.00;99.90
6496;DHT22;3281;47.658;9.166;2024-02-28T01:32:11;10.00;99.90
6496;DHT22;3281;47.658;9.166;2024-02-28T01:34:38;10.00;99.90
6496;DHT22;3281;47.658;9.166;2024-02-28T01:37:05;10.00;99.90
6496;DHT22;3281;47.658;9.166;2024-02-28T01:39:31;10.00;99.90
6496;DHT22;3281;47.658;9.166;2024-02-28T01:41:58;10.00;99.90
6496;DHT22;3281;47.658;9.166;2024-02-28T01:44:25;10.00;99.90
6496;DHT22;3281;47.658;9.166;2024-02-28T01:46:53;9.90;99.90
6496;DHT22;3281;47.658;9.166;2024-02-28T01:49:22;9.90;99.90
6496;DHT22;3281;47.658;9.166;2024-02-28T01:51:50;10.00;99.90
6496;DHT22;3281;47.658;9.166;2024-02-28T01:54:20;10.00;99.90
6496;DHT22;3281;47.658;9.166;2024-02-28T01:56:47;10.00;99.90
6496;DHT22;3281;47.658;9.166;2024-02-28T01:59:15;10.00;99.90
6496;DHT22;3281;47.658;9.166;2024-02-28T02:01:42;10.00;99.90
6496;DHT22;3281;47.658;9.166;2024-02-28T02:04:10;10.00;99.90
6496;DHT22;3281;47.658;9.166;2024-02-28T02:06:39;10.00;99.90
6496;DHT22;3281;47.658;9.166;2024-02-28T02:09:08;10.00;99.90
6496;DHT22;3281;47.658;9.166;2024-02-28T02:11:35;10.00;99.90
6496;DHT22;3281;47.658;9.166;2024-02-28T02:14:02;10.00;99.90
6496;DHT22;3281;47.658;9.166;2024-02-28T02:16:29;10.00;99.90
6496;DHT22;3281;47.658;9.166;2024-02-28T02:18:55;10.00;99.90
6496;DHT22;3281;47.658;9.166;2024-02-28T02:21:29;10.00;99.90
6496;DHT22;3281;47.658;9.166;2024-02-28T02:23:58;10.00;99.90
6496;DHT22;3281;47.658;9.166;2024-02-28T02:26:24;10.00;99.90
6496;DHT22;3281;47.658;9.166;2024-02-28T02:28:51;9.90;99.90
6496;DHT22;3281;47.658;9.166;2024-02-28T02:31:18;9.90;99.90
6496;DHT22;3281;47.658;9.166;2024-02-28T02:33:44;9.90;99.90
6496;DHT22;3281;47.658;9.166;2024-02-28T02:36:11;9.90;99.90
6496;DHT22;3281;47.658;9.166;2024-02-28T02:38:38;9.90;99.90
6496;DHT22;3281;47.658;9.166;2024-02-28T02:41:06;9.80;99.90
6496;DHT22;3281;47.658;9.166;2024-02-28T02:43:32;9.90;99.90
6496;DHT22;3281;47.658;9.166;2024-02-28T02:45:59;9.80;99.90
6496;DHT22;3281;47.658;9.166;2024-02-28T02:48:26;9.80;99.90
6496;DHT22;3281;47.658;9.166;2024-02-28T02:50:53;9.80;99.90
6496;DHT22;3281;47.658;9.166;2024-02-28T02:53:19;9.80;99.90
6496;DHT22;3281;47.658;9.166;2024-02-28T02:55:46;9.90;99.90
6496;DHT22;3281;47.658;9.166;2024-02-28T02:58:14;9.90;99.90
6496;DHT22;3281;47.658;9.166;2024-02-28T03:00:41;9.90;99.90
6496;DHT22;3281;47.658;9.166;2024-02-28T03:03:08;9.90;99.90
6496;DHT22;3281;47.658;9.166;2024-02-28T03:05:34;9.90;99.90
6496;DHT22;3281;47.658;9.166;2024-02-28T03:08:01;9.90;99.90
6496;DHT22;3281;47.658;9.166;2024-02-28T03:10:28;9.80;99.90
6496;DHT22;3281;47.658;9.166;2024-02-28T03:12:55;9.90;99.90
6496;DHT22;3281;47.658;9.166;2024-02-28T03:15:23;9.90;99.90
6496;DHT22;3281;47.658;9.166;2024-02-28T03:17:50;9.90;99.90
6496;DHT22;3281;47.658;9.166;2024-02-28T03:20:16;9.90;99.90
6496;DHT22;3281;47.658;9.166;2024-02-28T03:22:43;10.00;99.90
6496;DHT22;3281;47.658;9.166;2024-02-28T03:25:10;10.00;99.90
6496;DHT22;3281;47.658;9.166;2024-02-28T03:27:36;9.90;99.90
6496;DHT22;3281;47.658;9.166;2024-02-28T03:30:04;9.90;99.90
6496;DHT22;3281;47.658;9.166;2024-02-28T03:32:32;9.90;99.90
6496;DHT22;3281;47.658;9.166;2024-02-28T03:34:59;9.80;99.90
6496;DHT22;3281;47.658;9.166;2024-02-28T03:37:26;9.80;99.90
6496;DHT22;3281;47.658;9.166;2024-02-28T03:39:53;9.80;99.90
6496;DHT22;3281;47.658;9.166;2024-02-28T03:42:19;9.70;99.90
6496;DHT22;3281;47.658;9.166;2024-02-28T03:44:46;9.80;99.90
6496;DHT22;3281;47.658;9.166;2024-02-28T03:47:13;9.80;99.90
6496;DHT22;3281;47.658;9.166;2024-02-28T03:49:41;9.80;99.90
6496;DHT22;3281;47.658;9.166;2024-02-28T03:52:08;9.80;99.90
6496;DHT22;3281;47.658;9.166;2024-02-28T03:54:34;9.70;99.90
6496;DHT22;3281;47.658;9.166;2024-02-28T03:57:01;9.70;99.90
6496;DHT22;3281;47.658;9.166;2024-02-28T03:59:28;9.70;99.90
6496;DHT22;3281;47.658;9.166;2024-02-28T04:01:55;9.80;99.90
6496;DHT22;3281;47.658;9.166;2024-02-28T04:04:21;9.80;99.90
6496;DHT22;3281;47.658;9.166;2024-02-28T04:06:49;9.80;99.90
6496;DHT22;3281;47.658;9.166;2024-02-28T04:09:16;9.80;99.90
6496;DHT22;3281;47.658;9.166;2024-02-28T04:11:43;9.80;99.90
6496;DHT22;3281;47.658;9.166;2024-02-28T04:14:09;9.80;99.90
6496;DHT22;3281;47.658;9.166;2024-02-28T04:16:41;9.80;99.90
6496;DHT22;3281;47.658;9.166;2024-02-28T04:19:09;9.80;99.90
6496;DHT22;3281;47.658;9.166;2024-02-28T04:21:36;9.80;99.90
6496;DHT22;3281;47.658;9.166;2024-02-28T04:24:04;9.80;99.90
6496;DHT22;3281;47.658;9.166;2024-02-28T04:26:31;9.70;99.90
6496;DHT22;3281;47.658;9.166;2024-02-28T04:28:58;9.70;99.90
6496;DHT22;3281;47.658;9.166;2024-02-28T04:31:27;9.70;99.90
6496;DHT22;3281;47.658;9.166;2024-02-28T04:33:53;9.60;99.90
6496;DHT22;3281;47.658;9.166;2024-02-28T04:36:20;9.60;99.90
6496;DHT22;3281;47.658;9.166;2024-02-28T04:38:47;9.70;99.90
6496;DHT22;3281;47.658;9.166;2024-02-28T04:41:15;9.60;99.90
6496;DHT22;3281;47.658;9.166;2024-02-28T04:43:41;9.60;99.90
6496;DHT22;3281;47.658;9.166;2024-02-28T04:46:08;9.50;99.90
6496;DHT22;3281;47.658;9.166;2024-02-28T04:48:35;9.50;99.90
6496;DHT22;3281;47.658;9.166;2024-02-28T04:51:01;9.50;99.90
6496;DHT22;3281;47.658;9.166;2024-02-28T04:53:28;9.40;99.90
6496;DHT22;3281;47.658;9.166;2024-02-28T04:55:55;9.50;99.90
6496;DHT22;3281;47.658;9.166;2024-02-28T04:58:23;9.50;99.90
6496;DHT22;3281;47.658;9.166;2024-02-28T05:00:50;9.40;99.90
6496;DHT22;3281;47.658;9.166;2024-02-28T05:03:17;9.30;99.90
6496;DHT22;3281;47.658;9.166;2024-02-28T05:05:43;9.30;99.90
6496;DHT22;3281;47.658;9.166;2024-02-28T05:08:10;9.30;99.90
6496;DHT22;3281;47.658;9.166;2024-02-28T05:10:37;9.30;99.90
6496;DHT22;3281;47.658;9.166;2024-02-28T05:13:05;9.40;99.90
6496;DHT22;3281;47.658;9.166;2024-02-28T05:15:33;9.40;99.90
6496;DHT22;3281;47.658;9.166;2024-02-28T05:18:00;9.50;99.90
6496;DHT22;3281;47.658;9.166;2024-02-28T05:20:26;9.30;99.90
6496;DHT22;3281;47.658;9.166;2024-02-28T05:22:53;9.20;99.90
6496;DHT22;3281;47.658;9.166;2024-02-28T05:25:20;9.20;99.90
6496;DHT22;3281;47.658;9.166;2024-02-28T05:27:47;9.20;99.90
6496;DHT22;3281;47.658;9.166;2024-02-28T05:30:14;9.20;99.90
6496;DHT22;3281;47.658;9.166;2024-02-28T05:32:42;9.20;99.90
6496;DHT22;3281;47.658;9.166;2024-02-28T05:35:08;9.20;99.90
6496;DHT22;3281;47.658;9.166;2024-02-28T05:37:37;9.30;99.90
6496;DHT22;3281;47.658;9.166;2024-02-28T05:40:06;9.30;99.90
6496;DHT22;3281;47.658;9.166;2024-02-28T05:42:33;9.30;99.90
6496;DHT22;3281;47.658;9.166;2024-02-28T05:44:59;9.30;99.90
6496;DHT22;3281;47.658;9.166;2024-02-28T05:47:26;9.30;99.90
6496;DHT22;3281;47.658;9.166;2024-02-28T05:49:55;9.30;99.90
6496;DHT22;3281;47.658;9.166;2024-02-28T05:52:23;9.30;99.90
6496;DHT22;3281;47.658;9.166;2024-02-28T05:54:50;9.30;99.90
6496;DHT22;3281;47.658;9.166;2024-02-28T05:57:17;9.30;99.90
6496;DHT22;3281;47.658;9.166;2024-02-28T05:59:44;9.30;99.90
6496;DHT22;3281;47.658;9.166;2024-02-28T06:02:10;9.20;99.90
6496;DHT22;3281;47.658;9.166;2024-02-28T06:04:38;9.20;99.90
6496;DHT22;3281;47.658;9.166;2024-02-28T06:07:06;9.30;99.90
6496;DHT22;3281;47.658;9.166;2024-02-28T06:09:33;9.20;99.90
6496;DHT22;3281;47.658;9.166;2024-02-28T06:11:59;9.10;99.90
6496;DHT22;3281;47.658;9.166;2024-02-28T06:14:27;9.00;99.90
6496;DHT22;3281;47.658;9.166;2024-02-28T06:16:54;9.00;99.90
6496;DHT22;3281;47.658;9.166;2024-02-28T06:19:20;9.00;99.90
6496;DHT22;3281;47.658;9.166;2024-02-28T06:21:47;8.90;99.90
6496;DHT22;3281;47.658;9.166;2024-02-28T06:24:15;8.90;99.90
6496;DHT22;3281;47.658;9.166;2024-02-28T06:26:42;8.90;99.90
6496;DHT22;3281;47.658;9.166;2024-02-28T06:29:08;9.00;99.90
6496;DHT22;3281;47.658;9.166;2024-02-28T06:31:35;9.00;99.90
6496;DHT22;3281;47.658;9.166;2024-02-28T06:34:03;9.10;99.90
6496;DHT22;3281;47.658;9.166;2024-02-28T06:36:29;9.10;99.90
6496;DHT22;3281;47.658;9.166;2024-02-28T06:38:56;9.10;99.90
6496;DHT22;3281;47.658;9.166;2024-02-28T06:41:24;9.10;99.90
6496;DHT22;3281;47.658;9.166;2024-02-28T06:43:51;9.00;99.90
6496;DHT22;3281;47.658;9.166;2024-02-28T06:46:18;9.00;99.90
6496;DHT22;3281;47.658;9.166;2024-02-28T06:48:44;9.00;99.90
6496;DHT22;3281;47.658;9.166;2024-02-28T06:51:11;9.00;99.90
6496;DHT22;3281;47.658;9.166;2024-02-28T06:53:38;9.10;99.90
6496;DHT22;3281;47.658;9.166;2024-02-28T06:56:05;9.00;99.90
6496;DHT22;3281;47.658;9.166;2024-02-28T06:58:33;9.10;99.90
6496;DHT22;3281;47.658;9.166;2024-02-28T07:00:59;9.10;99.90
6496;DHT22;3281;47.658;9.166;2024-02-28T07:03:26;9.10;99.90
6496;DHT22;3281;47.658;9.166;2024-02-28T07:05:53;9.10;99.90
6496;DHT22;3281;47.658;9.166;2024-02-28T07:08:20;9.10;99.90
6496;DHT22;3281;47.658;9.166;2024-02-28T07:10:47;9.10;99.90
6496;DHT22;3281;47.658;9.166;2024-02-28T07:13:19;9.10;99.90
6496;DHT22;3281;47.658;9.166;2024-02-28T07:15:47;9.10;99.90
6496;DHT22;3281;47.658;9.166;2024-02-28T07:18:15;9.10;99.90
6496;DHT22;3281;47.658;9.166;2024-02-28T07:20:42;9.00;99.90
6496;DHT22;3281;47.658;9.166;2024-02-28T07:23:09;9.00;99.90
6496;DHT22;3281;47.658;9.166;2024-02-28T07:25:35;9.10;99.90
6496;DHT22;3281;47.658;9.166;2024-02-28T07:28:03;9.10;99.90
6496;DHT22;3281;47.658;9.166;2024-02-28T07:30:30;9.00;99.90
6496;DHT22;3281;47.658;9.166;2024-02-28T07:32:58;9.00;99.90
6496;DHT22;3281;47.658;9.166;2024-02-28T07:35:25;9.10;99.90
6496;DHT22;3281;47.658;9.166;2024-02-28T07:37:51;9.10;99.90
6496;DHT22;3281;47.658;9.166;2024-02-28T07:40:18;9.10;99.90
6496;DHT22;3281;47.658;9.166;2024-02-28T07:42:45;9.10;99.90
6496;DHT22;3281;47.658;9.166;2024-02-28T07:45:12;9.10;99.90
6496;DHT22;3281;47.658;9.166;2024-02-28T07:47:38;9.00;99.90
6496;DHT22;3281;47.658;9.166;2024-02-28T07:50:07;9.10;99.90
6496;DHT22;3281;47.658;9.166;2024-02-28T07:52:34;9.00;99.90
6496;DHT22;3281;47.658;9.166;2024-02-28T07:55:03;9.00;99.90
6496;DHT22;3281;47.658;9.166;2024-02-28T07:57:31;9.10;99.90
6496;DHT22;3281;47.658;9.166;2024-02-28T07:59:58;9.20;99.90
6496;DHT22;3281;47.658;9.166;2024-02-28T08:02:25;9.30;99.90
6496;DHT22;3281;47.658;9.166;2024-02-28T08:04:52;9.30;99.90
6496;DHT22;3281;47.658;9.166;2024-02-28T08:07:20;9.30;99.90
6496;DHT22;3281;47.658;9.166;2024-02-28T08:09:46;9.30;99.90
6496;DHT22;3281;47.658;9.166;2024-02-28T08:12:13;9.30;99.90
6496;DHT22;3281;47.658;9.166;2024-02-28T08:14:40;9.20;99.90
6496;DHT22;3281;47.658;9.166;2024-02-28T08:17:06;9.10;99.90
6496;DHT22;3281;47.658;9.166;2024-02-28T08:19:33;9.20;99.90
6496;DHT22;3281;47.658;9.166;2024-02-28T08:22:00;9.20;99.90
6496;DHT22;3281;47.658;9.166;2024-02-28T08:24:28;9.10;99.90
6496;DHT22;3281;47.658;9.166;2024-02-28T08:26:55;9.20;99.90
6496;DHT22;3281;47.658;9.166;2024-02-28T08:29:22;9.30;99.90
6496;DHT22;3281;47.658;9.166;2024-02-28T08:31:49;9.30;99.90
6496;DHT22;3281;47.658;9.166;2024-02-28T08:34:15;9.40;99.90
6496;DHT22;3281;47.658;9.166;2024-02-28T08:36:43;9.40;99.90
6496;DHT22;3281;47.658;9.166;2024-02-28T08:39:10;9.50;99.90
6496;DHT22;3281;47.658;9.166;2024-02-28T08:41:38;9.50;99.90
6496;DHT22;3281;47.658;9.166;2024-02-28T08:44:04;9.50;99.90
6496;DHT22;3281;47.658;9.166;2024-02-28T08:46:31;9.50;99.90
6496;DHT22;3281;47.658;9.166;2024-02-28T08:48:58;9.50;99.90
6496;DHT22;3281;47.658;9.166;2024-02-28T08:51:24;9.50;99.90
6496;DHT22;3281;47.658;9.166;2024-02-28T08:53:52;9.50;99.90
6496;DHT22;3281;47.658;9.166;2024-02-28T08:56:20;9.50;99.90
6496;DHT22;3281;47.658;9.166;2024-02-28T08:58:48;9.50;99.90
6496;DHT22;3281;47.658;9.166;2024-02-28T09:01:15;9.50;99.90
6496;DHT22;3281;47.658;9.166;2024-02-28T09:03:42;9.50;99.90
6496;DHT22;3281;47.658;9.166;2024-02-28T09:06:08;9.50;99.90
6496;DHT22;3281;47.658;9.166;2024-02-28T09:08:35;9.60;99.90
6496;DHT22;3281;47.658;9.166;2024-02-28T09:11:02;9.60;99.90
6496;DHT22;3281;47.658;9.166;2024-02-28T09:13:30;9.70;99.90
6496;DHT22;3281;47.658;9.166;2024-02-28T09:15:58;9.70;99.90
6496;DHT22;3281;47.658;9.166;2024-02-28T09:18:25;9.80;99.90
6496;DHT22;3281;47.658;9.166;2024-02-28T09:20:52;9.80;99.90
6496;DHT22;3281;47.658;9.166;2024-02-28T09:23:18;9.90;99.90
6496;DHT22;3281;47.658;9.166;2024-02-28T09:25:45;10.00;99.90
6496;DHT22;3281;47.658;9.166;2024-02-28T09:28:12;9.90;99.90
6496;DHT22;3281;47.658;9.166;2024-02-28T09:30:41;9.90;99.90
6496;DHT22;3281;47.658;9.166;2024-02-28T09:33:09;9.80;99.90
6496;DHT22;3281;47.658;9.166;2024-02-28T09:35:36;9.90;99.90
6496;DHT22;3281;47.658;9.166;2024-02-28T09:38:03;9.90;99.90
6496;DHT22;3281;47.658;9.166;2024-02-28T09:40:30;10.00;99.90
6496;DHT22;3281;47.658;9.166;2024-02-28T09:43:00;10.00;99.90
6496;DHT22;3281;47.658;9.166;2024-02-28T09:45:29;10.00;99.90
6496;DHT22;3281;47.658;9.166;2024-02-28T09:47:58;9.90;99.90
6496;DHT22;3281;47.658;9.166;2024-02-28T09:50:27;10.00;99.90
6496;DHT22;3281;47.658;9.166;2024-02-28T09:52:54;10.00;99.90
6496;DHT22;3281;47.658;9.166;2024-02-28T09:55:21;10.00;99.90
6496;DHT22;3281;47.658;9.166;2024-02-28T09:57:48;10.00;99.90
6496;DHT22;3281;47.658;9.166;2024-02-28T10:00:18;10.10;99.90
6496;DHT22;3281;47.658;9.166;2024-02-28T10:02:47;10.10;99.90
6496;DHT22;3281;47.658;9.166;2024-02-28T10:05:14;10.10;99.90
6496;DHT22;3281;47.658;9.166;2024-02-28T10:07:43;10.20;99.90
6496;DHT22;3281;47.658;9.166;2024-02-28T10:10:09;10.30;99.90
6496;DHT22;3281;47.658;9.166;2024-02-28T10:12:40;10.30;99.90
6496;DHT22;3281;47.658;9.166;2024-02-28T10:15:08;10.30;99.90
6496;DHT22;3281;47.658;9.166;2024-02-28T10:17:35;10.10;99.90
6496;DHT22;3281;47.658;9.166;2024-02-28T10:20:03;9.90;99.90
6496;DHT22;3281;47.658;9.166;2024-02-28T10:22:34;9.90;99.90
6496;DHT22;3281;47.658;9.166;2024-02-28T10:25:02;10.00;99.90
6496;DHT22;3281;47.658;9.166;2024-02-28T10:27:32;10.10;99.90
6496;DHT22;3281;47.658;9.166;2024-02-28T10:29:59;10.10;99.90
6496;DHT22;3281;47.658;9.166;2024-02-28T10:32:25;10.10;99.90
6496;DHT22;3281;47.658;9.166;2024-02-28T10:34:53;10.00;99.90
6496;DHT22;3281;47.658;9.166;2024-02-28T10:37:21;9.90;99.90
6496;DHT22;3281;47.658;9.166;2024-02-28T10:39:49;9.80;99.90
6496;DHT22;3281;47.658;9.166;2024-02-28T10:42:19;9.90;99.90
6496;DHT22;3281;47.658;9.166;2024-02-28T10:44:47;10.00;99.90
6496;DHT22;3281;47.658;9.166;2024-02-28T10:47:17;10.20;99.90
6496;DHT22;3281;47.658;9.166;2024-02-28T10:49:44;10.40;99.90
6496;DHT22;3281;47.658;9.166;2024-02-28T10:52:11;10.60;99.90
6496;DHT22;3281;47.658;9.166;2024-02-28T10:54:40;10.80;99.90
6496;DHT22;3281;47.658;9.166;2024-02-28T10:57:07;10.80;99.90
6496;DHT22;3281;47.658;9.166;2024-02-28T10:59:37;11.00;99.90
6496;DHT22;3281;47.658;9.166;2024-02-28T11:02:05;11.10;99.90
6496;DHT22;3281;47.658;9.166;2024-02-28T11:04:32;11.10;99.90
6496;DHT22;3281;47.658;9.166;2024-02-28T11:07:00;11.10;99.90
6496;DHT22;3281;47.658;9.166;2024-02-28T11:09:29;10.70;99.90
6496;DHT22;3281;47.658;9.166;2024-02-28T11:11:56;10.70;99.90
6496;DHT22;3281;47.658;9.166;2024-02-28T11:14:23;10.70;99.90
6496;DHT22;3281;47.658;9.166;2024-02-28T11:17:01;10.70;99.90
6496;DHT22;3281;47.658;9.166;2024-02-28T11:19:29;10.70;99.90
6496;DHT22;3281;47.658;9.166;2024-02-28T11:21:57;10.60;99.90
6496;DHT22;3281;47.658;9.166;2024-02-28T11:24:24;10.50;99.90
6496;DHT22;3281;47.658;9.166;2024-02-28T11:26:51;10.50;99.90
6496;DHT22;3281;47.658;9.166;2024-02-28T11:29:22;10.60;99.90
6496;DHT22;3281;47.658;9.166;2024-02-28T11:31:50;10.70;99.90
6496;DHT22;3281;47.658;9.166;2024-02-28T11:34:18;10.80;99.90
6496;DHT22;3281;47.658;9.166;2024-02-28T11:36:47;11.00;99.90
6496;DHT22;3281;47.658;9.166;2024-02-28T11:39:14;11.10;99.90
6496;DHT22;3281;47.658;9.166;2024-02-28T11:41:41;11.30;99.90
6496;DHT22;3281;47.658;9.166;2024-02-28T11:44:08;11.30;99.90
6496;DHT22;3281;47.658;9.166;2024-02-28T11:46:36;11.50;99.90
6496;DHT22;3281;47.658;9.166;2024-02-28T11:49:02;11.50;99.90
6496;DHT22;3281;47.658;9.166;2024-02-28T11:51:32;11.50;99.90
6496;DHT22;3281;47.658;9.166;2024-02-28T11:54:01;11.70;99.90
6496;DHT22;3281;47.658;9.166;2024-02-28T11:56:28;11.90;99.90
6496;DHT22;3281;47.658;9.166;2024-02-28T11:58:54;12.10;99.90
6496;DHT22;3281;47.658;9.166;2024-02-28T12:01:35;12.30;99.90
6496;DHT22;3281;47.658;9.166;2024-02-28T12:04:03;12.40;99.90
6496;DHT22;3281;47.658;9.166;2024-02-28T12:06:32;12.40;99.90
6496;DHT22;3281;47.658;9.166;2024-02-28T12:08:58;12.50;99.90
6496;DHT22;3281;47.658;9.166;2024-02-28T12:11:25;12.70;99.90
6496;DHT22;3281;47.658;9.166;2024-02-28T12:13:54;12.80;99.90
6496;DHT22;3281;47.658;9.166;2024-02-28T12:16:22;12.70;99.90
6496;DHT22;3281;47.658;9.166;2024-02-28T12:18:49;12.70;99.90
6496;DHT22;3281;47.658;9.166;2024-02-28T12:21:16;12.70;99.90
6496;DHT22;3281;47.658;9.166;2024-02-28T12:23:44;12.60;99.90
6496;DHT22;3281;47.658;9.166;2024-02-28T12:26:11;12.50;99.90
6496;DHT22;3281;47.658;9.166;2024-02-28T12:28:37;12.50;99.90
6496;DHT22;3281;47.658;9.166;2024-02-28T12:31:05;12.50;99.90
6496;DHT22;3281;47.658;9.166;2024-02-28T12:33:34;12.50;99.90
6496;DHT22;3281;47.658;9.166;2024-02-28T12:36:01;12.50;99.90
6496;DHT22;3281;47.658;9.166;2024-02-28T12:38:29;12.50;99.90
6496;DHT22;3281;47.658;9.166;2024-02-28T12:40:57;12.50;99.90
6496;DHT22;3281;47.658;9.166;2024-02-28T12:43:24;12.30;99.90
6496;DHT22;3281;47.658;9.166;2024-02-28T12:45:51;12.00;99.90
6496;DHT22;3281;47.658;9.166;2024-02-28T12:48:18;11.90;99.90
6496;DHT22;3281;47.658;9.166;2024-02-28T12:50:45;11.70;99.90
6496;DHT22;3281;47.658;9.166;2024-02-28T12:53:12;11.70;99.90
6496;DHT22;3281;47.658;9.166;2024-02-28T12:55:39;11.70;99.90
6496;DHT22;3281;47.658;9.166;2024-02-28T12:58:07;11.80;99.90
6496;DHT22;3281;47.658;9.166;2024-02-28T13:00:34;11.80;99.90
6496;DHT22;3281;47.658;9.166;2024-02-28T13:03:01;11.90;99.90
6496;DHT22;3281;47.658;9.166;2024-02-28T13:05:28;12.00;99.90
6496;DHT22;3281;47.658;9.166;2024-02-28T13:07:55;12.00;99.90
6496;DHT22;3281;47.658;9.166;2024-02-28T13:10:22;12.10;99.90
6496;DHT22;3281;47.658;9.166;2024-02-28T13:12:49;11.80;99.90
6496;DHT22;3281;47.658;9.166;2024-02-28T13:15:17;11.90;99.90
6496;DHT22;3281;47.658;9.166;2024-02-28T13:17:44;11.80;99.90
6496;DHT22;3281;47.658;9.166;2024-02-28T13:20:12;11.70;99.90
6496;DHT22;3281;47.658;9.166;2024-02-28T13:22:39;11.70;99.90
6496;DHT22;3281;47.658;9.166;2024-02-28T13:25:06;11.80;99.90
6496;DHT22;3281;47.658;9.166;2024-02-28T13:27:33;11.80;99.90
6496;DHT22;3281;47.658;9.166;2024-02-28T13:30:00;11.80;99.90
6496;DHT22;3281;47.658;9.166;2024-02-28T13:32:28;11.80;99.90
6496;DHT22;3281;47.658;9.166;2024-02-28T13:34:55;11.70;99.90
6496;DHT22;3281;47.658;9.166;2024-02-28T13:37:22;11.70;99.90
6496;DHT22;3281;47.658;9.166;2024-02-28T13:39:49;11.70;99.90
6496;DHT22;3281;47.658;9.166;2024-02-28T13:42:17;11.70;99.90
6496;DHT22;3281;47.658;9.166;2024-02-28T13:44:45;11.60;99.90
6496;DHT22;3281;47.658;9.166;2024-02-28T13:47:12;11.60;99.90
6496;DHT22;3281;47.658;9.166;2024-02-28T13:49:41;11.60;99.90
6496;DHT22;3281;47.658;9.166;2024-02-28T13:52:08;11.60;99.90
6496;DHT22;3281;47.658;9.166;2024-02-28T13:54:35;11.70;99.90
6496;DHT22;3281;47.658;9.166;2024-02-28T13:57:02;11.80;99.90
6496;DHT22;3281;47.658;9.166;2024-02-28T13:59:30;11.90;99.90
6496;DHT22;3281;47.658;9.166;2024-02-28T14:01:57;11.90;99.90
6496;DHT22;3281;47.658;9.166;2024-02-28T14:04:25;11.90;99.90
6496;DHT22;3281;47.658;9.166;2024-02-28T14:06:53;11.90;99.90
6496;DHT22;3281;47.658;9.166;2024-02-28T14:09:19;11.90;99.90
6496;DHT22;3281;47.658;9.166;2024-02-28T14:11:46;11.80;99.90
6496;DHT22;3281;47.658;9.166;2024-02-28T14:14:13;11.80;99.90
6496;DHT22;3281;47.658;9.166;2024-02-28T14:16:41;11.90;99.90
6496;DHT22;3281;47.658;9.166;2024-02-28T14:19:08;12.00;99.90
6496;DHT22;3281;47.658;9.166;2024-02-28T14:21:34;12.10;99.90
6496;DHT22;3281;47.658;9.166;2024-02-28T14:24:03;12.00;99.90
6496;DHT22;3281;47.658;9.166;2024-02-28T14:26:29;12.10;99.90
6496;DHT22;3281;47.658;9.166;2024-02-28T14:28:56;12.10;99.90
6496;DHT22;3281;47.658;9.166;2024-02-28T14:31:23;12.10;99.90
6496;DHT22;3281;47.658;9.166;2024-02-28T14:33:50;12.20;99.90
6496;DHT22;3281;47.658;9.166;2024-02-28T14:36:16;12.20;99.90
6496;DHT22;3281;47.658;9.166;2024-02-28T14:38:45;12.20;99.90
6496;DHT22;3281;47.658;9.166;2024-02-28T14:41:14;12.20;99.90
6496;DHT22;3281;47.658;9.166;2024-02-28T14:43:41;12.20;99.90
6496;DHT22;3281;47.658;9.166;2024-02-28T14:46:07;12.20;99.90
6496;DHT22;3281;47.658;9.166;2024-02-28T14:48:35;12.10;99.90
6496;DHT22;3281;47.658;9.166;2024-02-28T14:51:02;12.10;99.90
6496;DHT22;3281;47.658;9.166;2024-02-28T14:53:29;12.10;99.90
6496;DHT22;3281;47.658;9.166;2024-02-28T14:55:55;12.10;99.90
6496;DHT22;3281;47.658;9.166;2024-02-28T14:58:23;12.10;99.90
6496;DHT22;3281;47.658;9.166;2024-02-28T15:00:50;12.10;99.90
6496;DHT22;3281;47.658;9.166;2024-02-28T15:03:17;12.00;99.90
6496;DHT22;3281;47.658;9.166;2024-02-28T15:05:44;12.00;99.90
6496;DHT22;3281;47.658;9.166;2024-02-28T15:08:10;11.90;99.90
6496;DHT22;3281;47.658;9.166;2024-02-28T15:10:37;11.90;99.90
6496;DHT22;3281;47.658;9.166;2024-02-28T15:13:04;11.90;99.90
6496;DHT22;3281;47.658;9.166;2024-02-28T15:15:33;11.90;99.90
6496;DHT22;3281;47.658;9.166;2024-02-28T15:17:59;11.80;99.90
6496;DHT22;3281;47.658;9.166;2024-02-28T15:20:27;11.80;99.90
6496;DHT22;3281;47.658;9.166;2024-02-28T15:22:53;11.80;99.90
6496;DHT22;3281;47.658;9.166;2024-02-28T15:25:20;11.70;99.90
6496;DHT22;3281;47.658;9.166;2024-02-28T15:27:48;11.70;99.90
6496;DHT22;3281;47.658;9.166;2024-02-28T15:30:14;11.70;99.90
6496;DHT22;3281;47.658;9.166;2024-02-28T15:32:43;11.60;99.90
6496;DHT22;3281;47.658;9.166;2024-02-28T15:35:10;11.60;99.90
6496;DHT22;3281;47.658;9.166;2024-02-28T15:37:37;11.50;99.90
6496;DHT22;3281;47.658;9.166;2024-02-28T15:40:04;11.50;99.90
6496;DHT22;3281;47.658;9.166;2024-02-28T15:42:32;11.50;99.90
6496;DHT22;3281;47.658;9.166;2024-02-28T15:44:58;11.40;99.90
6496;DHT22;3281;47.658;9.166;2024-02-28T15:47:25;11.40;99.90
6496;DHT22;3281;47.658;9.166;2024-02-28T15:49:53;11.30;99.90
6496;DHT22;3281;47.658;9.166;2024-02-28T15:52:20;11.30;99.90
6496;DHT22;3281;47.658;9.166;2024-02-28T15:54:47;11.30;99.90
6496;DHT22;3281;47.658;9.166;2024-02-28T15:57:13;11.30;99.90
6496;DHT22;3281;47.658;9.166;2024-02-28T15:59:41;11.30;99.90
6496;DHT22;3281;47.658;9.166;2024-02-28T16:02:09;11.30;99.90
6496;DHT22;3281;47.658;9.166;2024-02-28T16:04:37;11.30;99.90
6496;DHT22;3281;47.658;9.166;2024-02-28T16:07:05;11.20;99.90
6496;DHT22;3281;47.658;9.166;2024-02-28T16:09:33;11.20;99.90